sensor_id;sensor_type;location;lat;lon;timestamp;P1;durP1;ratioP1;P2;durP2;ratioP2
4355;SDS011;64374;51.482;7.408;2023-02-10T00:01:42;43.93;;;24.87;;
4355;SDS011;64374;51.482;7.408;2023-02-10T00:04:12;51.53;;;25.97;;
4355;SDS011;64374;51.482;7.408;2023-02-10T00:06:41;46.37;;;24.07;;
4355;SDS011;64374;51.482;7.408;2023-02-10T00:09:11;58.83;;;26.53;;
4355;SDS011;64374;51.482;7.408;2023-02-10T00:11:42;46.00;;;23.63;;
4355;SDS011;64374;51.482;7.408;2023-02-10T00:14:27;44.97;;;25.13;;
4355;SDS011;64374;51.482;7.408;2023-02-10T00:16:57;50.47;;;23.70;;
4355;SDS011;64374;51.482;7.408;2023-02-10T00:19:48;44.67;;;24.50;;
4355;SDS011;64374;51.482;7.408;2023-02-10T00:22:16;41.63;;;24.30;;
4355;SDS011;64374;51.482;7.408;2023-02-10T00:24:45;52.87;;;28.47;;
4355;SDS011;64374;51.482;7.408;2023-02-10T00:27:13;44.33;;;24.60;;
4355;SDS011;64374;51.482;7.408;2023-02-10T00:29:41;41.30;;;23.23;;
4355;SDS011;64374;51.482;7.408;2023-02-10T00:32:12;41.67;;;24.40;;
4355;SDS011;64374;51.482;7.408;2023-02-10T00:34:40;44.57;;;24.30;;
4355;SDS011;64374;51.482;7.408;2023-02-10T00:37:12;41.80;;;25.97;;
4355;SDS011;64374;51.482;7.408;2023-02-10T00:39:40;36.90;;;23.20;;
4355;SDS011;64374;51.482;7.408;2023-02-10T00:42:08;43.13;;;23.50;;
4355;SDS011;64374;51.482;7.408;2023-02-10T00:44:36;47.30;;;28.40;;
4355;SDS011;64374;51.482;7.408;2023-02-10T00:47:05;46.77;;;26.00;;
4355;SDS011;64374;51.482;7.408;2023-02-10T00:49:35;49.43;;;27.20;;
4355;SDS011;64374;51.482;7.408;2023-02-10T00:52:04;48.67;;;25.00;;
4355;SDS011;64374;51.482;7.408;2023-02-10T00:54:32;49.60;;;25.57;;
4355;SDS011;64374;51.482;7.408;2023-02-10T00:57:00;42.40;;;23.37;;
4355;SDS011;64374;51.482;7.408;2023-02-10T00:59:29;44.63;;;24.43;;
4355;SDS011;64374;51.482;7.408;2023-02-10T01:01:58;52.07;;;26.93;;
4355;SDS011;64374;51.482;7.408;2023-02-10T01:04:26;43.30;;;24.30;;
4355;SDS011;64374;51.482;7.408;2023-02-10T01:06:55;42.27;;;24.27;;
4355;SDS011;64374;51.482;7.408;2023-02-10T01:09:26;45.40;;;24.90;;
4355;SDS011;64374;51.482;7.408;2023-02-10T01:11:55;49.63;;;27.27;;
4355;SDS011;64374;51.482;7.408;2023-02-10T01:14:24;49.33;;;28.27;;
4355;SDS011;64374;51.482;7.408;2023-02-10T01:16:53;47.33;;;25.30;;
4355;SDS011;64374;51.482;7.408;2023-02-10T01:19:22;52.60;;;25.33;;
4355;SDS011;64374;51.482;7.408;2023-02-10T01:21:50;50.40;;;25.97;;
4355;SDS011;64374;51.482;7.408;2023-02-10T01:24:20;47.50;;;25.60;;
4355;SDS011;64374;51.482;7.408;2023-02-10T01:26:50;46.00;;;25.87;;
4355;SDS011;64374;51.482;7.408;2023-02-10T01:29:19;49.30;;;27.63;;
4355;SDS011;64374;51.482;7.408;2023-02-10T01:31:47;53.07;;;28.67;;
4355;SDS011;64374;51.482;7.408;2023-02-10T01:34:15;47.10;;;26.83;;
4355;SDS011;64374;51.482;7.408;2023-02-10T01:36:43;51.57;;;26.77;;
4355;SDS011;64374;51.482;7.408;2023-02-10T01:39:11;61.13;;;29.43;;
4355;SDS011;64374;51.482;7.408;2023-02-10T01:41:43;49.20;;;26.07;;
4355;SDS011;64374;51.482;7.408;2023-02-10T01:47:22;49.00;;;26.20;;
4355;SDS011;64374;51.482;7.408;2023-02-10T01:49:56;52.67;;;28.03;;
4355;SDS011;64374;51.482;7.408;2023-02-10T01:52:25;45.80;;;25.53;;
4355;SDS011;64374;51.482;7.408;2023-02-10T01:54:58;44.93;;;27.47;;
4355;SDS011;64374;51.482;7.408;2023-02-10T01:57:31;51.93;;;29.37;;
4355;SDS011;64374;51.482;7.408;2023-02-10T02:00:01;46.27;;;24.87;;
4355;SDS011;64374;51.482;7.408;2023-02-10T02:02:52;45.63;;;26.67;;
4355;SDS011;64374;51.482;7.408;2023-02-10T02:05:25;49.57;;;26.80;;
4355;SDS011;64374;51.482;7.408;2023-02-10T02:07:58;43.97;;;26.70;;
4355;SDS011;64374;51.482;7.408;2023-02-10T02:10:35;56.80;;;30.33;;
4355;SDS011;64374;51.482;7.408;2023-02-10T02:13:25;55.87;;;27.27;;
4355;SDS011;64374;51.482;7.408;2023-02-10T02:16:05;50.97;;;26.60;;
4355;SDS011;64374;51.482;7.408;2023-02-10T02:18:45;51.70;;;29.00;;
4355;SDS011;64374;51.482;7.408;2023-02-10T02:30:57;46.97;;;26.80;;
4355;SDS011;64374;51.482;7.408;2023-02-10T02:33:48;47.47;;;25.97;;
4355;SDS011;64374;51.482;7.408;2023-02-10T02:36:20;56.57;;;28.40;;
4355;SDS011;64374;51.482;7.408;2023-02-10T02:38:51;52.60;;;28.67;;
4355;SDS011;64374;51.482;7.408;2023-02-10T02:41:27;53.87;;;28.27;;
4355;SDS011;64374;51.482;7.408;2023-02-10T02:43:57;57.37;;;32.37;;
4355;SDS011;64374;51.482;7.408;2023-02-10T02:46:33;55.27;;;29.03;;
4355;SDS011;64374;51.482;7.408;2023-02-10T02:49:12;54.90;;;26.70;;
4355;SDS011;64374;51.482;7.408;2023-02-10T02:51:47;52.50;;;27.67;;
4355;SDS011;64374;51.482;7.408;2023-02-10T02:54:24;50.60;;;27.23;;
4355;SDS011;64374;51.482;7.408;2023-02-10T02:56:57;45.23;;;26.70;;
4355;SDS011;64374;51.482;7.408;2023-02-10T02:59:32;49.70;;;27.17;;
4355;SDS011;64374;51.482;7.408;2023-02-10T03:02:07;48.10;;;28.63;;
4355;SDS011;64374;51.482;7.408;2023-02-10T03:04:42;47.00;;;26.50;;
4355;SDS011;64374;51.482;7.408;2023-02-10T03:07:14;52.33;;;27.97;;
4355;SDS011;64374;51.482;7.408;2023-02-10T03:09:43;64.53;;;33.73;;
4355;SDS011;64374;51.482;7.408;2023-02-10T03:12:11;54.30;;;28.60;;
4355;SDS011;64374;51.482;7.408;2023-02-10T03:14:40;60.80;;;30.97;;
4355;SDS011;64374;51.482;7.408;2023-02-10T03:17:08;58.47;;;30.97;;
4355;SDS011;64374;51.482;7.408;2023-02-10T03:19:37;56.07;;;30.30;;
4355;SDS011;64374;51.482;7.408;2023-02-10T03:22:07;49.27;;;28.00;;
4355;SDS011;64374;51.482;7.408;2023-02-10T03:24:35;63.80;;;30.73;;
4355;SDS011;64374;51.482;7.408;2023-02-10T03:27:05;53.60;;;29.27;;
4355;SDS011;64374;51.482;7.408;2023-02-10T03:29:33;49.63;;;29.47;;
4355;SDS011;64374;51.482;7.408;2023-02-10T03:32:02;50.27;;;27.00;;
4355;SDS011;64374;51.482;7.408;2023-02-10T03:34:32;53.50;;;28.63;;
4355;SDS011;64374;51.482;7.408;2023-02-10T03:37:00;54.17;;;28.97;;
4355;SDS011;64374;51.482;7.408;2023-02-10T03:39:31;57.10;;;28.97;;
4355;SDS011;64374;51.482;7.408;2023-02-10T03:41:59;55.60;;;27.50;;
4355;SDS011;64374;51.482;7.408;2023-02-10T03:44:31;55.27;;;28.00;;
4355;SDS011;64374;51.482;7.408;2023-02-10T03:47:01;60.73;;;30.70;;
4355;SDS011;64374;51.482;7.408;2023-02-10T03:49:30;52.37;;;28.90;;
4355;SDS011;64374;51.482;7.408;2023-02-10T03:51:58;57.23;;;30.50;;
4355;SDS011;64374;51.482;7.408;2023-02-10T03:54:26;65.93;;;33.77;;
4355;SDS011;64374;51.482;7.408;2023-02-10T03:56:56;59.57;;;29.17;;
4355;SDS011;64374;51.482;7.408;2023-02-10T03:59:24;53.23;;;30.97;;
4355;SDS011;64374;51.482;7.408;2023-02-10T04:01:53;56.80;;;29.47;;
4355;SDS011;64374;51.482;7.408;2023-02-10T04:04:21;55.40;;;29.07;;
4355;SDS011;64374;51.482;7.408;2023-02-10T04:06:49;52.00;;;26.97;;
4355;SDS011;64374;51.482;7.408;2023-02-10T04:09:18;52.30;;;27.00;;
4355;SDS011;64374;51.482;7.408;2023-02-10T04:11:48;53.87;;;30.17;;
4355;SDS011;64374;51.482;7.408;2023-02-10T04:14:18;48.93;;;28.47;;
4355;SDS011;64374;51.482;7.408;2023-02-10T04:16:46;54.40;;;28.83;;
4355;SDS011;64374;51.482;7.408;2023-02-10T04:19:15;53.13;;;29.10;;
4355;SDS011;64374;51.482;7.408;2023-02-10T04:21:44;54.40;;;29.23;;
4355;SDS011;64374;51.482;7.408;2023-02-10T04:24:13;53.87;;;29.57;;
4355;SDS011;64374;51.482;7.408;2023-02-10T04:26:43;47.90;;;28.23;;
4355;SDS011;64374;51.482;7.408;2023-02-10T04:29:11;59.63;;;29.83;;
4355;SDS011;64374;51.482;7.408;2023-02-10T04:31:45;45.63;;;26.87;;
4355;SDS011;64374;51.482;7.408;2023-02-10T04:34:14;53.87;;;28.27;;
4355;SDS011;64374;51.482;7.408;2023-02-10T04:36:43;51.43;;;29.30;;
4355;SDS011;64374;51.482;7.408;2023-02-10T04:39:13;50.00;;;28.67;;
4355;SDS011;64374;51.482;7.408;2023-02-10T04:41:41;55.80;;;29.17;;
4355;SDS011;64374;51.482;7.408;2023-02-10T04:44:09;64.33;;;32.60;;
4355;SDS011;64374;51.482;7.408;2023-02-10T04:46:38;61.13;;;31.20;;
4355;SDS011;64374;51.482;7.408;2023-02-10T04:49:08;57.07;;;31.07;;
4355;SDS011;64374;51.482;7.408;2023-02-10T04:51:37;54.40;;;30.13;;
4355;SDS011;64374;51.482;7.408;2023-02-10T04:54:06;57.47;;;30.03;;
4355;SDS011;64374;51.482;7.408;2023-02-10T04:56:35;52.27;;;28.77;;
4355;SDS011;64374;51.482;7.408;2023-02-10T04:59:03;51.77;;;30.37;;
4355;SDS011;64374;51.482;7.408;2023-02-10T05:01:32;48.53;;;27.83;;
4355;SDS011;64374;51.482;7.408;2023-02-10T05:04:01;56.00;;;30.10;;
4355;SDS011;64374;51.482;7.408;2023-02-10T05:06:30;54.53;;;29.93;;
4355;SDS011;64374;51.482;7.408;2023-02-10T05:08:59;57.80;;;31.37;;
4355;SDS011;64374;51.482;7.408;2023-02-10T05:11:27;48.83;;;28.57;;
4355;SDS011;64374;51.482;7.408;2023-02-10T05:14:17;52.77;;;27.53;;
4355;SDS011;64374;51.482;7.408;2023-02-10T05:16:46;46.67;;;25.33;;
4355;SDS011;64374;51.482;7.408;2023-02-10T05:19:14;61.67;;;33.43;;
4355;SDS011;64374;51.482;7.408;2023-02-10T05:21:45;54.90;;;30.23;;
4355;SDS011;64374;51.482;7.408;2023-02-10T05:24:15;57.37;;;28.77;;
4355;SDS011;64374;51.482;7.408;2023-02-10T05:26:44;53.03;;;29.87;;
4355;SDS011;64374;51.482;7.408;2023-02-10T05:29:12;56.13;;;29.20;;
4355;SDS011;64374;51.482;7.408;2023-02-10T05:31:40;54.73;;;31.13;;
4355;SDS011;64374;51.482;7.408;2023-02-10T05:34:09;52.70;;;26.70;;
4355;SDS011;64374;51.482;7.408;2023-02-10T05:36:37;61.77;;;30.10;;
4355;SDS011;64374;51.482;7.408;2023-02-10T05:39:06;53.70;;;31.17;;
4355;SDS011;64374;51.482;7.408;2023-02-10T05:41:53;60.73;;;28.77;;
4355;SDS011;64374;51.482;7.408;2023-02-10T05:44:24;56.33;;;28.87;;
4355;SDS011;64374;51.482;7.408;2023-02-10T05:46:53;58.40;;;30.60;;
4355;SDS011;64374;51.482;7.408;2023-02-10T05:49:21;66.30;;;33.77;;
4355;SDS011;64374;51.482;7.408;2023-02-10T05:51:51;50.57;;;27.10;;
4355;SDS011;64374;51.482;7.408;2023-02-10T05:54:22;53.07;;;29.40;;
4355;SDS011;64374;51.482;7.408;2023-02-10T05:56:51;52.00;;;29.93;;
4355;SDS011;64374;51.482;7.408;2023-02-10T05:59:19;51.90;;;29.50;;
4355;SDS011;64374;51.482;7.408;2023-02-10T06:01:48;53.30;;;27.70;;
4355;SDS011;64374;51.482;7.408;2023-02-10T06:04:16;57.70;;;28.57;;
4355;SDS011;64374;51.482;7.408;2023-02-10T06:06:45;63.77;;;30.87;;
4355;SDS011;64374;51.482;7.408;2023-02-10T06:09:15;52.27;;;28.30;;
4355;SDS011;64374;51.482;7.408;2023-02-10T06:11:44;63.83;;;33.30;;
4355;SDS011;64374;51.482;7.408;2023-02-10T06:14:13;58.03;;;28.93;;
4355;SDS011;64374;51.482;7.408;2023-02-10T06:16:45;44.50;;;27.40;;
4355;SDS011;64374;51.482;7.408;2023-02-10T06:19:16;49.43;;;28.47;;
4355;SDS011;64374;51.482;7.408;2023-02-10T06:21:46;54.30;;;30.03;;
4355;SDS011;64374;51.482;7.408;2023-02-10T06:24:15;57.97;;;30.90;;
4355;SDS011;64374;51.482;7.408;2023-02-10T06:26:45;58.93;;;30.10;;
4355;SDS011;64374;51.482;7.408;2023-02-10T06:29:13;62.03;;;32.30;;
4355;SDS011;64374;51.482;7.408;2023-02-10T06:31:42;61.93;;;31.80;;
4355;SDS011;64374;51.482;7.408;2023-02-10T06:34:12;67.70;;;32.77;;
4355;SDS011;64374;51.482;7.408;2023-02-10T06:36:40;59.43;;;31.40;;
4355;SDS011;64374;51.482;7.408;2023-02-10T06:39:08;56.27;;;28.73;;
4355;SDS011;64374;51.482;7.408;2023-02-10T06:41:36;62.63;;;31.43;;
4355;SDS011;64374;51.482;7.408;2023-02-10T06:44:06;56.83;;;29.43;;
4355;SDS011;64374;51.482;7.408;2023-02-10T06:46:35;66.90;;;33.10;;
4355;SDS011;64374;51.482;7.408;2023-02-10T06:49:03;59.27;;;30.20;;
4355;SDS011;64374;51.482;7.408;2023-02-10T06:51:31;59.57;;;32.27;;
4355;SDS011;64374;51.482;7.408;2023-02-10T06:54:00;53.37;;;28.27;;
4355;SDS011;64374;51.482;7.408;2023-02-10T06:56:28;55.20;;;31.40;;
4355;SDS011;64374;51.482;7.408;2023-02-10T06:58:56;59.10;;;27.97;;
4355;SDS011;64374;51.482;7.408;2023-02-10T07:01:27;54.43;;;29.53;;
4355;SDS011;64374;51.482;7.408;2023-02-10T07:03:58;58.03;;;29.93;;
4355;SDS011;64374;51.482;7.408;2023-02-10T07:06:28;64.50;;;30.37;;
4355;SDS011;64374;51.482;7.408;2023-02-10T07:08:56;54.40;;;29.60;;
4355;SDS011;64374;51.482;7.408;2023-02-10T07:11:25;47.37;;;28.40;;
4355;SDS011;64374;51.482;7.408;2023-02-10T07:13:53;57.73;;;27.63;;
4355;SDS011;64374;51.482;7.408;2023-02-10T07:16:21;55.53;;;29.70;;
4355;SDS011;64374;51.482;7.408;2023-02-10T07:18:51;52.37;;;27.73;;
4355;SDS011;64374;51.482;7.408;2023-02-10T07:21:22;51.33;;;28.07;;
4355;SDS011;64374;51.482;7.408;2023-02-10T07:23:50;60.90;;;31.40;;
4355;SDS011;64374;51.482;7.408;2023-02-10T07:26:18;62.20;;;31.63;;
4355;SDS011;64374;51.482;7.408;2023-02-10T07:28:47;62.27;;;30.43;;
4355;SDS011;64374;51.482;7.408;2023-02-10T07:31:16;50.97;;;26.93;;
4355;SDS011;64374;51.482;7.408;2023-02-10T07:33:44;59.13;;;30.13;;
4355;SDS011;64374;51.482;7.408;2023-02-10T07:36:17;58.67;;;28.10;;
4355;SDS011;64374;51.482;7.408;2023-02-10T07:38:45;50.00;;;27.93;;
4355;SDS011;64374;51.482;7.408;2023-02-10T07:41:13;55.87;;;26.43;;
4355;SDS011;64374;51.482;7.408;2023-02-10T07:43:42;57.37;;;27.03;;
4355;SDS011;64374;51.482;7.408;2023-02-10T07:46:14;62.80;;;30.97;;
4355;SDS011;64374;51.482;7.408;2023-02-10T07:48:43;64.00;;;32.17;;
4355;SDS011;64374;51.482;7.408;2023-02-10T07:51:11;55.90;;;27.73;;
4355;SDS011;64374;51.482;7.408;2023-02-10T07:53:40;57.97;;;30.37;;
4355;SDS011;64374;51.482;7.408;2023-02-10T07:56:12;52.10;;;28.43;;
4355;SDS011;64374;51.482;7.408;2023-02-10T07:58:41;54.60;;;28.90;;
4355;SDS011;64374;51.482;7.408;2023-02-10T08:01:11;58.73;;;27.57;;
4355;SDS011;64374;51.482;7.408;2023-02-10T08:03:39;53.50;;;30.20;;
4355;SDS011;64374;51.482;7.408;2023-02-10T08:06:11;72.33;;;30.50;;
4355;SDS011;64374;51.482;7.408;2023-02-10T08:08:41;52.83;;;29.67;;
4355;SDS011;64374;51.482;7.408;2023-02-10T08:11:09;55.07;;;27.60;;
4355;SDS011;64374;51.482;7.408;2023-02-10T08:13:37;52.50;;;28.80;;
4355;SDS011;64374;51.482;7.408;2023-02-10T08:16:06;58.40;;;29.07;;
4355;SDS011;64374;51.482;7.408;2023-02-10T08:18:38;51.07;;;28.47;;
4355;SDS011;64374;51.482;7.408;2023-02-10T08:21:06;49.53;;;27.10;;
4355;SDS011;64374;51.482;7.408;2023-02-10T08:23:35;53.10;;;27.93;;
4355;SDS011;64374;51.482;7.408;2023-02-10T08:26:06;55.10;;;29.43;;
4355;SDS011;64374;51.482;7.408;2023-02-10T08:28:37;57.70;;;30.37;;
4355;SDS011;64374;51.482;7.408;2023-02-10T08:31:07;55.77;;;28.20;;
4355;SDS011;64374;51.482;7.408;2023-02-10T08:33:36;55.43;;;28.90;;
4355;SDS011;64374;51.482;7.408;2023-02-10T08:36:13;66.80;;;31.23;;
4355;SDS011;64374;51.482;7.408;2023-02-10T08:38:45;51.23;;;28.50;;
4355;SDS011;64374;51.482;7.408;2023-02-10T08:41:18;59.80;;;29.47;;
4355;SDS011;64374;51.482;7.408;2023-02-10T08:43:47;49.80;;;27.50;;
4355;SDS011;64374;51.482;7.408;2023-02-10T08:46:15;61.30;;;32.50;;
4355;SDS011;64374;51.482;7.408;2023-02-10T08:48:47;54.63;;;31.13;;
4355;SDS011;64374;51.482;7.408;2023-02-10T08:51:15;62.50;;;32.13;;
4355;SDS011;64374;51.482;7.408;2023-02-10T08:53:45;55.27;;;28.67;;
4355;SDS011;64374;51.482;7.408;2023-02-10T08:56:14;62.90;;;32.17;;
4355;SDS011;64374;51.482;7.408;2023-02-10T08:58:47;65.93;;;33.33;;
4355;SDS011;64374;51.482;7.408;2023-02-10T09:01:17;63.57;;;31.23;;
4355;SDS011;64374;51.482;7.408;2023-02-10T09:03:50;64.20;;;31.97;;
4355;SDS011;64374;51.482;7.408;2023-02-10T09:06:20;67.13;;;32.53;;
4355;SDS011;64374;51.482;7.408;2023-02-10T09:08:50;62.00;;;30.97;;
4355;SDS011;64374;51.482;7.408;2023-02-10T09:11:19;57.10;;;30.07;;
4355;SDS011;64374;51.482;7.408;2023-02-10T09:13:53;61.17;;;30.60;;
4355;SDS011;64374;51.482;7.408;2023-02-10T09:16:22;65.73;;;32.30;;
4355;SDS011;64374;51.482;7.408;2023-02-10T09:18:52;60.87;;;31.23;;
4355;SDS011;64374;51.482;7.408;2023-02-10T09:21:20;68.63;;;33.70;;
4355;SDS011;64374;51.482;7.408;2023-02-10T09:23:52;60.67;;;29.60;;
4355;SDS011;64374;51.482;7.408;2023-02-10T09:26:20;75.93;;;34.40;;
4355;SDS011;64374;51.482;7.408;2023-02-10T09:28:48;73.50;;;33.00;;
4355;SDS011;64374;51.482;7.408;2023-02-10T09:31:18;64.40;;;28.97;;
4355;SDS011;64374;51.482;7.408;2023-02-10T09:33:46;61.07;;;31.70;;
4355;SDS011;64374;51.482;7.408;2023-02-10T09:36:17;67.73;;;31.70;;
4355;SDS011;64374;51.482;7.408;2023-02-10T09:38:46;64.97;;;31.10;;
4355;SDS011;64374;51.482;7.408;2023-02-10T09:41:19;54.40;;;29.43;;
4355;SDS011;64374;51.482;7.408;2023-02-10T09:44:20;62.63;;;30.50;;
4355;SDS011;64374;51.482;7.408;2023-02-10T09:53:17;57.93;;;31.50;;
4355;SDS011;64374;51.482;7.408;2023-02-10T09:55:49;57.40;;;28.30;;
4355;SDS011;64374;51.482;7.408;2023-02-10T09:58:24;62.87;;;29.67;;
4355;SDS011;64374;51.482;7.408;2023-02-10T10:01:01;54.03;;;29.23;;
4355;SDS011;64374;51.482;7.408;2023-02-10T10:03:40;53.90;;;28.60;;
4355;SDS011;64374;51.482;7.408;2023-02-10T10:06:14;58.67;;;30.57;;
4355;SDS011;64374;51.482;7.408;2023-02-10T10:08:57;56.47;;;26.53;;
4355;SDS011;64374;51.482;7.408;2023-02-10T10:11:32;55.00;;;28.53;;
4355;SDS011;64374;51.482;7.408;2023-02-10T10:14:05;63.63;;;29.20;;
4355;SDS011;64374;51.482;7.408;2023-02-10T10:16:48;62.47;;;30.60;;
4355;SDS011;64374;51.482;7.408;2023-02-10T10:19:28;56.23;;;28.20;;
4355;SDS011;64374;51.482;7.408;2023-02-10T10:22:13;54.47;;;29.27;;
4355;SDS011;64374;51.482;7.408;2023-02-10T10:24:59;60.07;;;29.57;;
4355;SDS011;64374;51.482;7.408;2023-02-10T10:27:46;54.37;;;28.03;;
4355;SDS011;64374;51.482;7.408;2023-02-10T10:30:25;57.90;;;28.67;;
4355;SDS011;64374;51.482;7.408;2023-02-10T10:33:06;60.60;;;29.70;;
4355;SDS011;64374;51.482;7.408;2023-02-10T10:35:48;51.97;;;27.73;;
4355;SDS011;64374;51.482;7.408;2023-02-10T10:38:19;54.67;;;27.83;;
4355;SDS011;64374;51.482;7.408;2023-02-10T10:40:51;52.30;;;28.63;;
4355;SDS011;64374;51.482;7.408;2023-02-10T10:43:23;59.67;;;30.67;;
4355;SDS011;64374;51.482;7.408;2023-02-10T10:45:56;55.17;;;28.17;;
4355;SDS011;64374;51.482;7.408;2023-02-10T10:48:30;53.27;;;27.33;;
4355;SDS011;64374;51.482;7.408;2023-02-10T10:51:02;55.60;;;27.97;;
4355;SDS011;64374;51.482;7.408;2023-02-10T10:53:37;58.23;;;28.67;;
4355;SDS011;64374;51.482;7.408;2023-02-10T10:56:11;48.63;;;26.50;;
4355;SDS011;64374;51.482;7.408;2023-02-10T10:58:45;51.30;;;27.87;;
4355;SDS011;64374;51.482;7.408;2023-02-10T11:01:17;59.77;;;30.00;;
4355;SDS011;64374;51.482;7.408;2023-02-10T11:04:02;59.30;;;27.20;;
4355;SDS011;64374;51.482;7.408;2023-02-10T11:06:37;60.63;;;29.90;;
4355;SDS011;64374;51.482;7.408;2023-02-10T11:09:16;59.47;;;29.07;;
4355;SDS011;64374;51.482;7.408;2023-02-10T11:11:49;52.33;;;25.70;;
4355;SDS011;64374;51.482;7.408;2023-02-10T11:14:21;53.10;;;28.23;;
4355;SDS011;64374;51.482;7.408;2023-02-10T11:16:58;41.73;;;24.70;;
4355;SDS011;64374;51.482;7.408;2023-02-10T11:19:29;47.50;;;23.43;;
4355;SDS011;64374;51.482;7.408;2023-02-10T11:22:16;53.97;;;26.63;;
4355;SDS011;64374;51.482;7.408;2023-02-10T11:24:49;49.43;;;24.10;;
4355;SDS011;64374;51.482;7.408;2023-02-10T11:27:19;50.87;;;26.57;;
4355;SDS011;64374;51.482;7.408;2023-02-10T11:29:48;51.13;;;26.93;;
4355;SDS011;64374;51.482;7.408;2023-02-10T11:32:20;39.27;;;23.07;;
4355;SDS011;64374;51.482;7.408;2023-02-10T11:34:52;44.30;;;23.90;;
4355;SDS011;64374;51.482;7.408;2023-02-10T11:37:26;45.03;;;24.17;;
4355;SDS011;64374;51.482;7.408;2023-02-10T11:39:57;50.30;;;26.27;;
4355;SDS011;64374;51.482;7.408;2023-02-10T11:42:28;40.80;;;23.60;;
4355;SDS011;64374;51.482;7.408;2023-02-10T11:45:00;41.83;;;23.30;;
4355;SDS011;64374;51.482;7.408;2023-02-10T11:47:40;49.27;;;25.77;;
4355;SDS011;64374;51.482;7.408;2023-02-10T11:50:18;46.63;;;27.73;;
4355;SDS011;64374;51.482;7.408;2023-02-10T11:52:49;45.23;;;26.43;;
4355;SDS011;64374;51.482;7.408;2023-02-10T11:55:17;44.13;;;26.30;;
4355;SDS011;64374;51.482;7.408;2023-02-10T11:57:51;50.43;;;25.17;;
4355;SDS011;64374;51.482;7.408;2023-02-10T12:00:44;46.73;;;26.53;;
4355;SDS011;64374;51.482;7.408;2023-02-10T12:03:24;49.97;;;26.80;;
4355;SDS011;64374;51.482;7.408;2023-02-10T12:06:03;46.03;;;25.37;;
4355;SDS011;64374;51.482;7.408;2023-02-10T12:08:40;42.87;;;25.50;;
4355;SDS011;64374;51.482;7.408;2023-02-10T12:11:15;41.57;;;26.67;;
4355;SDS011;64374;51.482;7.408;2023-02-10T12:13:52;48.97;;;26.53;;
4355;SDS011;64374;51.482;7.408;2023-02-10T12:16:32;47.10;;;27.27;;
4355;SDS011;64374;51.482;7.408;2023-02-10T12:19:12;44.07;;;26.20;;
4355;SDS011;64374;51.482;7.408;2023-02-10T12:21:54;44.20;;;26.80;;
4355;SDS011;64374;51.482;7.408;2023-02-10T12:24:46;39.00;;;23.40;;
4355;SDS011;64374;51.482;7.408;2023-02-10T12:27:36;38.83;;;23.77;;
4355;SDS011;64374;51.482;7.408;2023-02-10T12:30:19;36.87;;;21.73;;
4355;SDS011;64374;51.482;7.408;2023-02-10T12:32:58;38.43;;;22.90;;
4355;SDS011;64374;51.482;7.408;2023-02-10T12:35:36;45.00;;;25.80;;
4355;SDS011;64374;51.482;7.408;2023-02-10T12:38:27;37.33;;;24.23;;
4355;SDS011;64374;51.482;7.408;2023-02-10T12:41:09;38.97;;;23.27;;
4355;SDS011;64374;51.482;7.408;2023-02-10T12:43:58;38.50;;;22.67;;
4355;SDS011;64374;51.482;7.408;2023-02-10T12:46:52;40.37;;;23.70;;
4355;SDS011;64374;51.482;7.408;2023-02-10T12:49:37;43.03;;;24.90;;
4355;SDS011;64374;51.482;7.408;2023-02-10T12:52:18;42.83;;;25.67;;
4355;SDS011;64374;51.482;7.408;2023-02-10T12:54:52;39.03;;;24.67;;
4355;SDS011;64374;51.482;7.408;2023-02-10T12:57:28;38.70;;;21.60;;
4355;SDS011;64374;51.482;7.408;2023-02-10T13:00:02;39.50;;;24.87;;
4355;SDS011;64374;51.482;7.408;2023-02-10T13:02:56;43.60;;;23.80;;
4355;SDS011;64374;51.482;7.408;2023-02-10T13:05:30;35.63;;;22.00;;
4355;SDS011;64374;51.482;7.408;2023-02-10T13:08:03;42.23;;;22.93;;
4355;SDS011;64374;51.482;7.408;2023-02-10T13:10:38;38.70;;;20.17;;
4355;SDS011;64374;51.482;7.408;2023-02-10T13:13:12;34.23;;;19.50;;
4355;SDS011;64374;51.482;7.408;2023-02-10T13:15:45;44.37;;;21.57;;
4355;SDS011;64374;51.482;7.408;2023-02-10T13:18:17;30.30;;;20.60;;
4355;SDS011;64374;51.482;7.408;2023-02-10T13:20:49;35.67;;;21.63;;
4355;SDS011;64374;51.482;7.408;2023-02-10T13:23:24;36.50;;;19.67;;
4355;SDS011;64374;51.482;7.408;2023-02-10T13:26:06;34.03;;;18.70;;
4355;SDS011;64374;51.482;7.408;2023-02-10T13:29:12;34.13;;;19.13;;
4355;SDS011;64374;51.482;7.408;2023-02-10T13:31:52;33.50;;;18.80;;
4355;SDS011;64374;51.482;7.408;2023-02-10T13:34:39;32.87;;;17.37;;
4355;SDS011;64374;51.482;7.408;2023-02-10T13:37:11;30.90;;;17.07;;
4355;SDS011;64374;51.482;7.408;2023-02-10T13:39:48;24.00;;;15.33;;
4355;SDS011;64374;51.482;7.408;2023-02-10T13:42:24;25.73;;;16.00;;
4355;SDS011;64374;51.482;7.408;2023-02-10T13:45:03;23.60;;;16.70;;
4355;SDS011;64374;51.482;7.408;2023-02-10T13:47:36;30.67;;;17.60;;
4355;SDS011;64374;51.482;7.408;2023-02-10T13:50:07;31.00;;;18.63;;
4355;SDS011;64374;51.482;7.408;2023-02-10T13:52:57;26.97;;;17.13;;
4355;SDS011;64374;51.482;7.408;2023-02-10T13:55:40;32.50;;;18.67;;
4355;SDS011;64374;51.482;7.408;2023-02-10T13:58:31;23.97;;;16.87;;
4355;SDS011;64374;51.482;7.408;2023-02-10T14:01:02;26.40;;;16.60;;
4355;SDS011;64374;51.482;7.408;2023-02-10T14:03:31;33.53;;;17.57;;
4355;SDS011;64374;51.482;7.408;2023-02-10T14:06:01;25.83;;;17.33;;
4355;SDS011;64374;51.482;7.408;2023-02-10T14:08:32;35.37;;;19.77;;
4355;SDS011;64374;51.482;7.408;2023-02-10T14:11:27;32.27;;;15.80;;
4355;SDS011;64374;51.482;7.408;2023-02-10T14:14:14;27.17;;;18.17;;
4355;SDS011;64374;51.482;7.408;2023-02-10T14:16:48;32.17;;;18.13;;
4355;SDS011;64374;51.482;7.408;2023-02-10T14:19:21;27.33;;;17.10;;
4355;SDS011;64374;51.482;7.408;2023-02-10T14:21:55;29.03;;;17.97;;
4355;SDS011;64374;51.482;7.408;2023-02-10T14:24:26;27.90;;;16.23;;
4355;SDS011;64374;51.482;7.408;2023-02-10T14:27:14;29.53;;;16.60;;
4355;SDS011;64374;51.482;7.408;2023-02-10T14:29:46;25.87;;;15.30;;
4355;SDS011;64374;51.482;7.408;2023-02-10T14:32:18;28.80;;;16.13;;
4355;SDS011;64374;51.482;7.408;2023-02-10T14:34:53;30.00;;;16.73;;
4355;SDS011;64374;51.482;7.408;2023-02-10T14:37:24;31.00;;;16.53;;
4355;SDS011;64374;51.482;7.408;2023-02-10T14:39:54;29.00;;;15.43;;
4355;SDS011;64374;51.482;7.408;2023-02-10T14:42:24;34.83;;;17.70;;
4355;SDS011;64374;51.482;7.408;2023-02-10T14:44:55;41.03;;;18.53;;
4355;SDS011;64374;51.482;7.408;2023-02-10T14:47:27;37.53;;;17.53;;
4355;SDS011;64374;51.482;7.408;2023-02-10T14:49:58;38.70;;;19.50;;
4355;SDS011;64374;51.482;7.408;2023-02-10T14:52:27;36.33;;;18.40;;
4355;SDS011;64374;51.482;7.408;2023-02-10T14:58:02;37.00;;;18.87;;
4355;SDS011;64374;51.482;7.408;2023-02-10T15:00:32;33.53;;;18.73;;
4355;SDS011;64374;51.482;7.408;2023-02-10T15:03:04;40.57;;;19.60;;
4355;SDS011;64374;51.482;7.408;2023-02-10T15:05:33;36.23;;;19.20;;
4355;SDS011;64374;51.482;7.408;2023-02-10T15:08:05;42.63;;;20.50;;
4355;SDS011;64374;51.482;7.408;2023-02-10T15:10:39;39.23;;;21.10;;
4355;SDS011;64374;51.482;7.408;2023-02-10T15:13:13;38.37;;;21.10;;
4355;SDS011;64374;51.482;7.408;2023-02-10T15:15:42;39.77;;;20.63;;
4355;SDS011;64374;51.482;7.408;2023-02-10T15:18:17;48.37;;;23.27;;
4355;SDS011;64374;51.482;7.408;2023-02-10T15:20:51;43.47;;;21.40;;
4355;SDS011;64374;51.482;7.408;2023-02-10T15:23:22;37.50;;;19.90;;
4355;SDS011;64374;51.482;7.408;2023-02-10T15:26:03;41.83;;;21.70;;
4355;SDS011;64374;51.482;7.408;2023-02-10T15:28:44;38.60;;;20.87;;